sensor_id;sensor_type;location;lat;lon;timestamp;P1;durP1;ratioP1;P2;durP2;ratioP2
72590;SDS011;60625;51.212;5.952;2023-04-01T00:00:20;4.60;;;0.80;;
72590;SDS011;60625;51.212;5.952;2023-04-01T00:05:22;6.70;;;0.50;;
72590;SDS011;60625;51.212;5.952;2023-04-01T00:10:25;3.20;;;0.50;;
72590;SDS011;60625;51.212;5.952;2023-04-01T00:15:26;3.40;;;0.60;;
72590;SDS011;60625;51.212;5.952;2023-04-01T00:20:27;4.70;;;0.70;;
72590;SDS011;60625;51.212;5.952;2023-04-01T00:25:28;3.10;;;0.60;;
72590;SDS011;60625;51.212;5.952;2023-04-01T00:30:28;4.20;;;0.80;;
72590;SDS011;60625;51.212;5.952;2023-04-01T00:35:29;2.50;;;0.40;;
72590;SDS011;60625;51.212;5.952;2023-04-01T00:40:36;3.80;;;0.40;;
72590;SDS011;60625;51.212;5.952;2023-04-01T00:45:40;3.00;;;0.70;;
72590;SDS011;60625;51.212;5.952;2023-04-01T00:50:47;3.10;;;0.40;;
72590;SDS011;60625;51.212;5.952;2023-04-01T00:56:00;5.20;;;0.90;;
72590;SDS011;60625;51.212;5.952;2023-04-01T01:01:05;5.00;;;0.50;;
72590;SDS011;60625;51.212;5.952;2023-04-01T01:06:19;2.00;;;0.50;;
72590;SDS011;60625;51.212;5.952;2023-04-01T01:12:05;1.90;;;0.40;;
72590;SDS011;60625;51.212;5.952;2023-04-01T01:17:19;3.00;;;0.60;;
72590;SDS011;60625;51.212;5.952;2023-04-01T01:22:42;3.20;;;0.60;;
72590;SDS011;60625;51.212;5.952;2023-04-01T01:34:03;2.90;;;0.40;;
72590;SDS011;60625;51.212;5.952;2023-04-01T01:39:12;2.90;;;0.50;;
72590;SDS011;60625;51.212;5.952;2023-04-01T01:44:17;5.20;;;0.50;;
72590;SDS011;60625;51.212;5.952;2023-04-01T01:49:18;3.00;;;0.60;;
72590;SDS011;60625;51.212;5.952;2023-04-01T01:54:20;4.00;;;0.40;;
72590;SDS011;60625;51.212;5.952;2023-04-01T01:59:23;2.80;;;0.50;;
72590;SDS011;60625;51.212;5.952;2023-04-01T02:04:25;2.90;;;0.70;;
72590;SDS011;60625;51.212;5.952;2023-04-01T02:09:27;4.00;;;0.80;;
72590;SDS011;60625;51.212;5.952;2023-04-01T02:14:45;3.20;;;0.60;;
72590;SDS011;60625;51.212;5.952;2023-04-01T02:19:50;2.50;;;0.60;;
72590;SDS011;60625;51.212;5.952;2023-04-01T02:25:00;2.50;;;0.70;;
72590;SDS011;60625;51.212;5.952;2023-04-01T02:30:04;2.30;;;0.60;;
72590;SDS011;60625;51.212;5.952;2023-04-01T02:35:07;2.60;;;1.00;;
72590;SDS011;60625;51.212;5.952;2023-04-01T02:40:13;3.60;;;0.80;;
72590;SDS011;60625;51.212;5.952;2023-04-01T02:45:14;6.20;;;0.90;;
72590;SDS011;60625;51.212;5.952;2023-04-01T02:50:15;2.80;;;0.90;;
72590;SDS011;60625;51.212;5.952;2023-04-01T02:55:16;2.80;;;0.70;;
72590;SDS011;60625;51.212;5.952;2023-04-01T03:00:17;4.90;;;0.90;;
72590;SDS011;60625;51.212;5.952;2023-04-01T03:05:18;4.00;;;1.20;;
72590;SDS011;60625;51.212;5.952;2023-04-01T03:10:19;3.60;;;0.90;;
72590;SDS011;60625;51.212;5.952;2023-04-01T03:15:21;3.40;;;0.80;;
72590;SDS011;60625;51.212;5.952;2023-04-01T03:20:21;2.90;;;0.80;;
72590;SDS011;60625;51.212;5.952;2023-04-01T03:25:22;3.40;;;0.80;;
72590;SDS011;60625;51.212;5.952;2023-04-01T03:30:22;4.00;;;1.00;;
72590;SDS011;60625;51.212;5.952;2023-04-01T03:35:23;4.00;;;1.00;;
72590;SDS011;60625;51.212;5.952;2023-04-01T03:40:25;4.20;;;1.20;;
72590;SDS011;60625;51.212;5.952;2023-04-01T03:45:27;3.80;;;0.90;;
72590;SDS011;60625;51.212;5.952;2023-04-01T03:50:27;4.60;;;1.40;;
72590;SDS011;60625;51.212;5.952;2023-04-01T03:55:28;3.30;;;1.20;;
72590;SDS011;60625;51.212;5.952;2023-04-01T04:00:29;4.70;;;1.00;;
72590;SDS011;60625;51.212;5.952;2023-04-01T04:05:31;4.50;;;1.20;;
72590;SDS011;60625;51.212;5.952;2023-04-01T04:10:32;7.40;;;1.60;;
72590;SDS011;60625;51.212;5.952;2023-04-01T04:15:32;4.30;;;1.70;;
72590;SDS011;60625;51.212;5.952;2023-04-01T04:20:33;4.50;;;1.50;;
72590;SDS011;60625;51.212;5.952;2023-04-01T04:25:33;4.30;;;1.40;;
72590;SDS011;60625;51.212;5.952;2023-04-01T04:30:34;4.20;;;1.70;;
72590;SDS011;60625;51.212;5.952;2023-04-01T04:35:35;4.20;;;1.80;;
72590;SDS011;60625;51.212;5.952;2023-04-01T04:40:37;4.30;;;1.80;;
72590;SDS011;60625;51.212;5.952;2023-04-01T04:45:38;5.10;;;2.10;;
72590;SDS011;60625;51.212;5.952;2023-04-01T04:50:40;5.00;;;2.10;;
72590;SDS011;60625;51.212;5.952;2023-04-01T04:55:48;5.50;;;2.20;;
72590;SDS011;60625;51.212;5.952;2023-04-01T05:01:17;5.50;;;2.70;;
72590;SDS011;60625;51.212;5.952;2023-04-01T05:06:19;7.10;;;3.30;;
72590;SDS011;60625;51.212;5.952;2023-04-01T05:11:20;6.20;;;3.20;;
72590;SDS011;60625;51.212;5.952;2023-04-01T05:16:21;5.90;;;3.10;;
72590;SDS011;60625;51.212;5.952;2023-04-01T05:21:22;6.30;;;3.20;;
72590;SDS011;60625;51.212;5.952;2023-04-01T05:26:23;7.10;;;3.70;;
72590;SDS011;60625;51.212;5.952;2023-04-01T05:31:23;7.50;;;3.90;;
72590;SDS011;60625;51.212;5.952;2023-04-01T05:36:25;6.80;;;3.80;;
72590;SDS011;60625;51.212;5.952;2023-04-01T05:41:25;6.50;;;3.40;;
72590;SDS011;60625;51.212;5.952;2023-04-01T05:46:26;6.20;;;3.50;;
72590;SDS011;60625;51.212;5.952;2023-04-01T05:51:40;6.10;;;3.50;;
72590;SDS011;60625;51.212;5.952;2023-04-01T05:56:41;6.00;;;2.90;;
72590;SDS011;60625;51.212;5.952;2023-04-01T06:01:41;5.00;;;2.70;;
72590;SDS011;60625;51.212;5.952;2023-04-01T06:06:42;3.80;;;1.80;;
72590;SDS011;60625;51.212;5.952;2023-04-01T06:28:44;6.60;;;3.70;;
72590;SDS011;60625;51.212;5.952;2023-04-01T06:39:18;6.80;;;4.30;;
72590;SDS011;60625;51.212;5.952;2023-04-01T06:45:08;8.50;;;3.70;;
72590;SDS011;60625;51.212;5.952;2023-04-01T06:57:14;5.10;;;2.50;;
72590;SDS011;60625;51.212;5.952;2023-04-01T07:07:50;5.90;;;2.60;;
72590;SDS011;60625;51.212;5.952;2023-04-01T07:12:58;5.30;;;2.40;;
72590;SDS011;60625;51.212;5.952;2023-04-01T07:18:52;3.90;;;2.20;;
72590;SDS011;60625;51.212;5.952;2023-04-01T07:24:03;4.60;;;2.50;;
72590;SDS011;60625;51.212;5.952;2023-04-01T07:29:26;4.60;;;2.10;;
72590;SDS011;60625;51.212;5.952;2023-04-01T07:40:32;5.40;;;2.20;;
72590;SDS011;60625;51.212;5.952;2023-04-01T07:56:15;4.80;;;2.90;;
72590;SDS011;60625;51.212;5.952;2023-04-01T08:02:02;7.50;;;3.30;;
72590;SDS011;60625;51.212;5.952;2023-04-01T08:12:49;6.10;;;3.30;;
72590;SDS011;60625;51.212;5.952;2023-04-01T08:18:45;5.20;;;3.30;;
72590;SDS011;60625;51.212;5.952;2023-04-01T08:23:56;5.80;;;3.70;;
72590;SDS011;60625;51.212;5.952;2023-04-01T08:29:04;6.00;;;3.90;;
72590;SDS011;60625;51.212;5.952;2023-04-01T08:34:16;5.90;;;3.80;;
72590;SDS011;60625;51.212;5.952;2023-04-01T08:39:39;7.60;;;5.20;;
72590;SDS011;60625;51.212;5.952;2023-04-01T08:45:10;7.50;;;4.20;;
72590;SDS011;60625;51.212;5.952;2023-04-01T08:50:56;7.50;;;5.30;;
72590;SDS011;60625;51.212;5.952;2023-04-01T09:31:04;6.50;;;4.40;;
72590;SDS011;60625;51.212;5.952;2023-04-01T09:53:22;6.40;;;4.40;;
72590;SDS011;60625;51.212;5.952;2023-04-01T10:10:58;9.40;;;5.90;;
72590;SDS011;60625;51.212;5.952;2023-04-01T10:27:29;11.30;;;8.00;;
72590;SDS011;60625;51.212;5.952;2023-04-01T10:33:18;10.00;;;6.30;;
72590;SDS011;60625;51.212;5.952;2023-04-01T10:44:30;7.30;;;5.10;;
72590;SDS011;60625;51.212;5.952;2023-04-01T10:56:06;8.40;;;6.00;;
72590;SDS011;60625;51.212;5.952;2023-04-01T11:02:03;8.80;;;5.60;;
72590;SDS011;60625;51.212;5.952;2023-04-01T11:07:45;8.50;;;6.30;;
72590;SDS011;60625;51.212;5.952;2023-04-01T11:30:22;7.10;;;5.50;;
72590;SDS011;60625;51.212;5.952;2023-04-01T11:41:09;5.80;;;4.30;;
72590;SDS011;60625;51.212;5.952;2023-04-01T11:52:55;6.90;;;4.10;;
72590;SDS011;60625;51.212;5.952;2023-04-01T12:09:44;6.00;;;3.10;;
72590;SDS011;60625;51.212;5.952;2023-04-01T12:15:24;6.10;;;3.30;;
72590;SDS011;60625;51.212;5.952;2023-04-01T12:20:33;8.90;;;4.40;;
72590;SDS011;60625;51.212;5.952;2023-04-01T12:36:54;6.90;;;3.50;;
72590;SDS011;60625;51.212;5.952;2023-04-01T13:06:04;8.60;;;2.70;;
72590;SDS011;60625;51.212;5.952;2023-04-01T13:11:20;4.70;;;2.20;;
72590;SDS011;60625;51.212;5.952;2023-04-01T13:16:53;4.20;;;1.80;;
72590;SDS011;60625;51.212;5.952;2023-04-01T13:22:10;5.20;;;2.50;;
72590;SDS011;60625;51.212;5.952;2023-04-01T13:27:25;4.90;;;1.70;;
72590;SDS011;60625;51.212;5.952;2023-04-01T13:43:47;5.80;;;2.20;;
72590;SDS011;60625;51.212;5.952;2023-04-01T13:54:13;4.80;;;1.90;;
72590;SDS011;60625;51.212;5.952;2023-04-01T14:11:13;4.60;;;2.80;;
72590;SDS011;60625;51.212;5.952;2023-04-01T14:32:34;4.50;;;2.60;;
72590;SDS011;60625;51.212;5.952;2023-04-01T14:38:01;5.00;;;2.60;;
72590;SDS011;60625;51.212;5.952;2023-04-01T15:04:44;7.50;;;4.30;;
72590;SDS011;60625;51.212;5.952;2023-04-01T15:20:52;7.00;;;4.30;;
72590;SDS011;60625;51.212;5.952;2023-04-01T15:26:13;7.90;;;4.60;;
72590;SDS011;60625;51.212;5.952;2023-04-01T15:31:22;5.90;;;3.90;;
72590;SDS011;60625;51.212;5.952;2023-04-01T15:42:18;7.40;;;3.70;;
72590;SDS011;60625;51.212;5.952;2023-04-01T15:52:38;8.00;;;4.00;;
72590;SDS011;60625;51.212;5.952;2023-04-01T15:58:00;7.20;;;3.70;;
72590;SDS011;60625;51.212;5.952;2023-04-01T16:14:10;6.80;;;3.40;;
72590;SDS011;60625;51.212;5.952;2023-04-01T16:19:31;6.00;;;2.90;;
72590;SDS011;60625;51.212;5.952;2023-04-01T16:24:38;5.20;;;2.60;;
72590;SDS011;60625;51.212;5.952;2023-04-01T16:29:48;5.30;;;3.10;;
72590;SDS011;60625;51.212;5.952;2023-04-01T16:40:52;4.50;;;2.40;;
72590;SDS011;60625;51.212;5.952;2023-04-01T16:46:39;3.80;;;1.90;;
72590;SDS011;60625;51.212;5.952;2023-04-01T17:10:53;3.20;;;1.20;;
72590;SDS011;60625;51.212;5.952;2023-04-01T17:21:15;3.60;;;1.40;;
72590;SDS011;60625;51.212;5.952;2023-04-01T17:42:47;4.20;;;2.30;;
72590;SDS011;60625;51.212;5.952;2023-04-01T17:48:14;5.00;;;2.50;;
72590;SDS011;60625;51.212;5.952;2023-04-01T18:10:34;6.30;;;3.30;;
72590;SDS011;60625;51.212;5.952;2023-04-01T18:21:12;7.60;;;2.90;;
72590;SDS011;60625;51.212;5.952;2023-04-01T18:26:39;7.60;;;3.30;;
72590;SDS011;60625;51.212;5.952;2023-04-01T18:31:45;5.00;;;2.70;;
72590;SDS011;60625;51.212;5.952;2023-04-01T18:47:47;6.40;;;3.40;;
72590;SDS011;60625;51.212;5.952;2023-04-01T19:03:57;7.50;;;4.80;;
72590;SDS011;60625;51.212;5.952;2023-04-01T19:09:32;7.20;;;4.80;;
72590;SDS011;60625;51.212;5.952;2023-04-01T19:20:34;6.50;;;4.40;;
72590;SDS011;60625;51.212;5.952;2023-04-01T19:25:42;8.10;;;5.30;;
72590;SDS011;60625;51.212;5.952;2023-04-01T19:36:45;7.60;;;5.20;;
72590;SDS011;60625;51.212;5.952;2023-04-01T19:41:56;8.90;;;4.60;;
72590;SDS011;60625;51.212;5.952;2023-04-01T19:52:41;8.10;;;5.00;;
72590;SDS011;60625;51.212;5.952;2023-04-01T20:08:54;7.40;;;3.90;;
72590;SDS011;60625;51.212;5.952;2023-04-01T20:14:28;6.10;;;3.50;;
72590;SDS011;60625;51.212;5.952;2023-04-01T20:24:46;9.40;;;4.60;;
72590;SDS011;60625;51.212;5.952;2023-04-01T20:30:01;7.40;;;5.10;;
72590;SDS011;60625;51.212;5.952;2023-04-01T20:35:39;8.00;;;4.40;;
72590;SDS011;60625;51.212;5.952;2023-04-01T20:40:50;8.80;;;5.20;;
72590;SDS011;60625;51.212;5.952;2023-04-01T20:45:58;8.40;;;5.60;;
72590;SDS011;60625;51.212;5.952;2023-04-01T20:51:06;8.00;;;5.20;;
72590;SDS011;60625;51.212;5.952;2023-04-01T21:01:39;7.50;;;5.00;;
72590;SDS011;60625;51.212;5.952;2023-04-01T21:18:04;8.30;;;5.60;;
72590;SDS011;60625;51.212;5.952;2023-04-01T21:23:38;8.40;;;5.50;;
72590;SDS011;60625;51.212;5.952;2023-04-01T21:34:42;6.70;;;4.40;;
72590;SDS011;60625;51.212;5.952;2023-04-01T21:51:42;5.70;;;3.70;;
72590;SDS011;60625;51.212;5.952;2023-04-01T22:08:39;6.40;;;4.20;;
72590;SDS011;60625;51.212;5.952;2023-04-01T22:19:19;5.80;;;3.60;;
72590;SDS011;60625;51.212;5.952;2023-04-01T22:30:01;5.50;;;3.30;;
72590;SDS011;60625;51.212;5.952;2023-04-01T22:40:45;5.70;;;2.70;;
72590;SDS011;60625;51.212;5.952;2023-04-01T22:51:56;4.80;;;2.70;;
72590;SDS011;60625;51.212;5.952;2023-04-01T22:57:10;4.80;;;2.90;;
72590;SDS011;60625;51.212;5.952;2023-04-01T23:02:30;4.60;;;2.70;;
72590;SDS011;60625;51.212;5.952;2023-04-01T23:12:57;6.10;;;3.60;;
72590;SDS011;60625;51.212;5.952;2023-04-01T23:18:15;5.90;;;3.50;;
72590;SDS011;60625;51.212;5.952;2023-04-01T23:23:26;6.60;;;4.10;;
72590;SDS011;60625;51.212;5.952;2023-04-01T23:28:50;6.80;;;4.30;;
72590;SDS011;60625;51.212;5.952;2023-04-01T23:33:56;7.10;;;3.90;;
72590;SDS011;60625;51.212;5.952;2023-04-01T23:39:09;7.70;;;4.40;;
72590;SDS011;60625;51.212;5.952;2023-04-01T23:44:19;7.00;;;4.60;;
72590;SDS011;60625;51.212;5.952;2023-04-01T23:49:40;6.30;;;4.10;;
